createdAt,value
2018-06-30T00:00:14.973Z,994.87
2018-06-30T00:01:25.081Z,994.88
2018-06-30T00:02:34.880Z,994.91
2018-06-30T00:03:44.991Z,994.89
2018-06-30T00:04:55.057Z,994.86
2018-06-30T00:06:04.860Z,994.9
2018-06-30T00:07:14.981Z,994.94
2018-06-30T00:08:25.036Z,994.92
2018-06-30T00:09:35.088Z,994.89
2018-06-30T00:10:44.886Z,994.91
2018-06-30T00:11:54.967Z,994.95
2018-06-30T00:13:04.819Z,994.92
2018-06-30T00:14:14.602Z,994.88
2018-06-30T00:15:24.665Z,994.98
2018-06-30T00:16:34.450Z,994.93
2018-06-30T00:17:44.515Z,994.96
2018-06-30T00:18:54.101Z,994.98
2018-06-30T00:20:03.902Z,994.91
2018-06-30T00:21:13.702Z,994.92
2018-06-30T00:22:23.777Z,994.96
2018-06-30T00:23:33.834Z,995.01
2018-06-30T00:24:43.401Z,995.07
2018-06-30T00:25:53.461Z,995.07
2018-06-30T00:27:03.267Z,995.09
2018-06-30T00:28:13.336Z,995.1
2018-06-30T00:29:23.137Z,995.08
2018-06-30T00:30:33.277Z,995.12
2018-06-30T00:31:43.082Z,995.17
2018-06-30T00:32:53.141Z,995.14
2018-06-30T00:34:03.214Z,995.12
2018-06-30T00:35:13.019Z,995.16
2018-06-30T00:36:22.848Z,995.12
2018-06-30T00:37:32.914Z,995.21
2018-06-30T00:38:42.997Z,995.14
2018-06-30T00:39:53.055Z,995.15
2018-06-30T00:41:02.849Z,995.16
2018-06-30T00:42:12.694Z,995.08
2018-06-30T00:43:22.218Z,995.14
2018-06-30T00:44:32.010Z,995.14
2018-06-30T00:45:41.806Z,995.14
2018-06-30T00:46:51.864Z,995.14
2018-06-30T00:48:01.180Z,995.16
2018-06-30T00:49:11.228Z,995.14
2018-06-30T00:50:21.302Z,995.13
2018-06-30T00:51:31.364Z,995.16
2018-06-30T00:52:41.166Z,995.14
2018-06-30T00:53:50.741Z,995.19
2018-06-30T00:55:00.528Z,995.17
2018-06-30T00:56:10.333Z,995.21
2018-06-30T00:57:20.374Z,995.23
2018-06-30T00:58:30.172Z,995.24
2018-06-30T00:59:40.017Z,995.22
2018-06-30T01:00:50.074Z,995.23
2018-06-30T01:02:00.148Z,995.21
2018-06-30T01:03:09.404Z,995.16
2018-06-30T01:04:19.209Z,995.15
2018-06-30T01:05:29.327Z,995.2
2018-06-30T01:06:38.842Z,995.19
2018-06-30T01:07:48.351Z,995.21
2018-06-30T01:08:58.418Z,995.21
2018-06-30T01:10:08.485Z,995.26
2018-06-30T01:11:18.324Z,995.28
2018-06-30T01:12:28.112Z,995.32
2018-06-30T01:13:38.180Z,995.31
2018-06-30T01:14:48.241Z,995.35
2018-06-30T01:15:58.310Z,995.31
2018-06-30T01:17:08.431Z,995.29
2018-06-30T01:18:17.975Z,995.27
2018-06-30T01:19:27.766Z,995.25
2018-06-30T01:20:37.841Z,995.24
2018-06-30T01:21:47.627Z,995.24
2018-06-30T01:22:57.725Z,995.2
2018-06-30T01:24:07.786Z,995.2
2018-06-30T01:25:17.826Z,995.22
2018-06-30T01:26:27.334Z,995.15
2018-06-30T01:27:37.142Z,995.19
2018-06-30T01:28:47.011Z,995.24
2018-06-30T01:29:56.794Z,995.27
2018-06-30T01:31:06.865Z,995.29
2018-06-30T01:32:16.110Z,995.31
2018-06-30T01:33:26.170Z,995.32
2018-06-30T01:34:36.021Z,995.31
2018-06-30T01:35:45.807Z,995.33
2018-06-30T01:36:55.588Z,995.34
2018-06-30T01:38:05.126Z,995.33
2018-06-30T01:39:14.928Z,995.34
2018-06-30T01:40:25.032Z,995.36
2018-06-30T01:41:35.091Z,995.35
2018-06-30T01:42:44.339Z,995.3
2018-06-30T01:43:54.421Z,995.35
2018-06-30T01:45:04.239Z,995.41
2018-06-30T01:46:14.097Z,995.4
2018-06-30T01:47:23.609Z,995.46
2018-06-30T01:48:33.673Z,995.48
2018-06-30T01:49:43.465Z,995.45
2018-06-30T01:50:53.532Z,995.46
2018-06-30T01:52:03.365Z,995.47
2018-06-30T01:53:13.160Z,995.49
2018-06-30T01:54:23.228Z,995.46
2018-06-30T01:55:33.276Z,995.49
2018-06-30T01:56:43.338Z,995.5
2018-06-30T01:57:53.165Z,995.54
2018-06-30T01:59:03.227Z,995.52
2018-06-30T02:00:13.284Z,995.5
2018-06-30T02:01:23.374Z,995.5
2018-06-30T02:02:32.901Z,995.48
2018-06-30T02:03:42.788Z,995.5
2018-06-30T02:04:52.850Z,995.46
2018-06-30T02:06:02.913Z,995.51
2018-06-30T02:07:12.989Z,995.5
2018-06-30T02:08:22.247Z,995.46
2018-06-30T02:09:32.088Z,995.49
2018-06-30T02:10:42.151Z,995.52
2018-06-30T02:11:52.244Z,995.52
2018-06-30T02:13:02.048Z,995.49
2018-06-30T02:14:11.843Z,995.51
2018-06-30T02:15:21.961Z,995.48
2018-06-30T02:16:31.746Z,995.52
2018-06-30T02:17:41.546Z,995.54
2018-06-30T02:18:51.608Z,995.55
2018-06-30T02:20:01.413Z,995.52
2018-06-30T02:21:11.551Z,995.54
2018-06-30T02:22:20.800Z,995.54
2018-06-30T02:23:30.602Z,995.54
2018-06-30T02:24:40.662Z,995.53
2018-06-30T02:25:50.735Z,995.5
2018-06-30T02:27:00.844Z,995.5
2018-06-30T02:28:10.650Z,995.51
2018-06-30T02:29:20.439Z,995.52
2018-06-30T02:30:30.516Z,995.55
2018-06-30T02:31:40.318Z,995.55
2018-06-30T02:32:50.476Z,995.55
2018-06-30T02:34:00.538Z,995.56
2018-06-30T02:35:10.587Z,995.53
2018-06-30T02:36:20.651Z,995.55
2018-06-30T02:37:30.718Z,995.51
2018-06-30T02:38:40.824Z,995.54
2018-06-30T02:39:50.913Z,995.51
2018-06-30T02:41:00.985Z,995.51
2018-06-30T02:42:11.055Z,995.52
2018-06-30T02:43:20.853Z,995.53
2018-06-30T02:44:30.998Z,995.54
2018-06-30T02:45:41.080Z,995.55
2018-06-30T02:46:51.324Z,995.53
2018-06-30T02:48:00.851Z,995.59
2018-06-30T02:49:10.380Z,995.56
2018-06-30T02:50:20.495Z,995.62
2018-06-30T02:51:30.546Z,995.57
2018-06-30T02:52:40.608Z,995.61
2018-06-30T02:53:50.400Z,995.61
2018-06-30T02:55:00.478Z,995.58
2018-06-30T02:56:10.356Z,995.6
2018-06-30T02:57:20.423Z,995.59
2018-06-30T02:58:30.497Z,995.55
2018-06-30T02:59:39.745Z,995.57
2018-06-30T03:03:28.980Z,995.61
2018-06-30T03:04:39.051Z,995.53
2018-06-30T03:05:49.118Z,995.56
2018-06-30T03:06:59.182Z,995.51
2018-06-30T03:08:09.281Z,995.48
2018-06-30T03:09:19.129Z,995.46
2018-06-30T03:10:28.670Z,995.45
2018-06-30T03:11:38.516Z,995.45
2018-06-30T03:12:48.589Z,995.43
2018-06-30T03:13:58.655Z,995.46
2018-06-30T03:15:08.220Z,995.45
2018-06-30T03:16:18.279Z,995.51
2018-06-30T03:17:28.352Z,995.52
2018-06-30T03:18:38.151Z,995.54
2018-06-30T03:19:47.957Z,995.53
2018-06-30T03:20:57.248Z,995.52
2018-06-30T03:22:07.326Z,995.56
2018-06-30T03:23:17.115Z,995.53
2018-06-30T03:24:27.199Z,995.51
2018-06-30T03:25:37.289Z,995.57
2018-06-30T03:26:46.874Z,995.54
2018-06-30T03:27:56.941Z,995.53
2018-06-30T03:29:07.026Z,995.52
2018-06-30T03:30:17.127Z,995.56
2018-06-30T03:31:27.203Z,995.56
2018-06-30T03:32:37.508Z,995.59
2018-06-30T03:33:47.574Z,995.57
2018-06-30T03:34:57.647Z,995.55
2018-06-30T03:36:07.724Z,995.51
2018-06-30T03:37:17.795Z,995.52
2018-06-30T03:38:27.698Z,995.58
2018-06-30T03:39:38.141Z,995.53
2018-06-30T03:40:47.919Z,995.51
2018-06-30T03:41:57.970Z,995.53
2018-06-30T03:43:08.078Z,995.51
2018-06-30T03:44:18.205Z,995.48
2018-06-30T03:45:28.301Z,995.53
2018-06-30T03:46:38.105Z,995.53
2018-06-30T03:47:48.176Z,995.52
2018-06-30T03:48:58.242Z,995.54
2018-06-30T03:50:08.082Z,995.52
2018-06-30T03:51:17.908Z,995.53
2018-06-30T03:52:27.974Z,995.53
2018-06-30T03:53:37.767Z,995.54
2018-06-30T03:54:47.565Z,995.54
2018-06-30T03:55:57.667Z,995.53
2018-06-30T03:57:07.745Z,995.56
2018-06-30T03:58:17.271Z,995.57
2018-06-30T03:59:27.337Z,995.57
2018-06-30T04:00:37.149Z,995.59
2018-06-30T04:01:46.747Z,995.57
2018-06-30T04:02:56.850Z,995.55
2018-06-30T04:04:06.634Z,995.54
2018-06-30T04:05:16.432Z,995.57
2018-06-30T04:06:26.223Z,995.51
2018-06-30T04:07:36.062Z,995.54
2018-06-30T04:08:46.142Z,995.51
2018-06-30T04:09:56.207Z,995.51
2018-06-30T04:11:06.271Z,995.5
2018-06-30T04:12:16.336Z,995.49
2018-06-30T04:13:26.460Z,995.48
2018-06-30T04:14:35.985Z,995.47
2018-06-30T04:15:46.072Z,995.44
2018-06-30T04:16:55.878Z,995.5
2018-06-30T04:18:05.401Z,995.43
2018-06-30T04:19:14.977Z,995.42
2018-06-30T04:20:24.772Z,995.4
2018-06-30T04:21:34.575Z,995.43
2018-06-30T04:22:43.559Z,995.49
2018-06-30T04:23:53.621Z,995.51
2018-06-30T04:25:03.739Z,995.51
2018-06-30T04:26:13.530Z,995.51
2018-06-30T04:27:23.584Z,995.49
2018-06-30T04:28:33.653Z,995.51
2018-06-30T04:29:43.721Z,995.49
2018-06-30T04:30:53.573Z,995.51
2018-06-30T04:32:03.385Z,995.5
2018-06-30T04:33:12.921Z,995.52
2018-06-30T04:34:22.728Z,995.52
2018-06-30T04:35:32.530Z,995.52
2018-06-30T04:36:42.113Z,995.57
2018-06-30T04:37:51.899Z,995.56
2018-06-30T04:39:01.703Z,995.53
2018-06-30T04:40:11.224Z,995.49
2018-06-30T04:41:21.284Z,995.51
2018-06-30T04:42:31.398Z,995.51
2018-06-30T04:43:41.193Z,995.5
2018-06-30T04:44:50.705Z,995.51
2018-06-30T04:46:00.774Z,995.54
2018-06-30T04:47:10.042Z,995.54
2018-06-30T04:48:19.905Z,995.52
2018-06-30T04:49:29.695Z,995.52
2018-06-30T04:50:39.771Z,995.53
2018-06-30T04:51:49.573Z,995.5
2018-06-30T04:52:59.653Z,995.51
2018-06-30T04:54:09.517Z,995.51
2018-06-30T04:55:19.039Z,995.52
2018-06-30T04:56:28.551Z,995.49
2018-06-30T04:57:38.657Z,995.47
2018-06-30T04:58:48.564Z,995.47
2018-06-30T04:59:58.679Z,995.47
2018-06-30T05:01:08.471Z,995.44
2018-06-30T05:02:18.530Z,995.49
2018-06-30T05:03:28.581Z,995.46
2018-06-30T05:04:38.374Z,995.52
2018-06-30T05:05:47.950Z,995.54
2018-06-30T05:06:57.767Z,995.54
2018-06-30T05:08:07.288Z,995.54
2018-06-30T05:09:17.103Z,995.53
2018-06-30T05:10:27.184Z,995.52
2018-06-30T05:11:37.301Z,995.51
2018-06-30T05:12:46.902Z,995.54
2018-06-30T05:13:57.287Z,995.48
2018-06-30T05:15:07.091Z,995.52
2018-06-30T05:16:17.159Z,995.48
2018-06-30T05:17:27.271Z,995.48
2018-06-30T05:18:37.077Z,995.48
2018-06-30T05:19:47.148Z,995.48
2018-06-30T05:20:57.273Z,995.46
2018-06-30T05:22:07.076Z,995.43
2018-06-30T05:23:16.913Z,995.44
2018-06-30T05:24:26.708Z,995.44
2018-06-30T05:25:36.516Z,995.43
2018-06-30T05:26:46.342Z,995.45
2018-06-30T05:27:56.148Z,995.47
2018-06-30T05:29:05.999Z,995.46
2018-06-30T05:30:16.063Z,995.44
2018-06-30T05:31:26.127Z,995.47
2018-06-30T05:32:36.182Z,995.44
2018-06-30T05:33:46.000Z,995.45
2018-06-30T05:34:55.811Z,995.39
2018-06-30T05:36:05.878Z,995.4
2018-06-30T05:37:15.423Z,995.39
2018-06-30T05:38:25.493Z,995.4
2018-06-30T05:39:35.565Z,995.42
2018-06-30T05:40:45.730Z,995.39
2018-06-30T05:41:55.798Z,995.41
2018-06-30T05:43:05.881Z,995.43
2018-06-30T05:44:15.411Z,995.43
2018-06-30T05:45:25.206Z,995.4
2018-06-30T05:46:35.067Z,995.38
2018-06-30T05:47:45.125Z,995.41
2018-06-30T05:48:55.198Z,995.38
2018-06-30T05:50:05.264Z,995.37
2018-06-30T05:51:15.057Z,995.39
2018-06-30T05:52:25.185Z,995.37
2018-06-30T05:53:35.251Z,995.44
2018-06-30T05:54:45.318Z,995.38
2018-06-30T05:55:55.104Z,995.43
2018-06-30T05:57:05.185Z,995.4
2018-06-30T05:58:15.029Z,995.38
2018-06-30T05:59:24.893Z,995.39
2018-06-30T06:00:34.847Z,995.39
2018-06-30T06:01:44.921Z,995.37
2018-06-30T06:02:54.181Z,995.37
2018-06-30T06:04:04.277Z,995.41
2018-06-30T06:05:14.084Z,995.44
2018-06-30T06:06:24.129Z,995.43
2018-06-30T06:07:33.390Z,995.45
2018-06-30T06:08:42.695Z,995.46
2018-06-30T06:09:52.952Z,995.39
2018-06-30T06:11:02.819Z,995.39
2018-06-30T06:12:12.879Z,995.45
2018-06-30T06:13:22.946Z,995.41
2018-06-30T06:14:33.032Z,995.42
2018-06-30T06:15:42.893Z,995.37
2018-06-30T06:16:52.415Z,995.36
2018-06-30T06:18:02.229Z,995.36
2018-06-30T06:19:11.758Z,995.34
2018-06-30T06:20:21.566Z,995.34
2018-06-30T06:21:31.146Z,995.36
2018-06-30T06:22:40.950Z,995.32
2018-06-30T06:23:50.749Z,995.33
2018-06-30T06:25:00.552Z,995.34
2018-06-30T06:26:10.097Z,995.35
2018-06-30T06:27:19.937Z,995.32
2018-06-30T06:28:30.248Z,995.31
2018-06-30T06:29:40.333Z,995.29
2018-06-30T06:30:50.153Z,995.28
2018-06-30T06:32:00.228Z,995.26
2018-06-30T06:33:10.348Z,995.28
2018-06-30T06:34:20.412Z,995.24
2018-06-30T06:35:30.202Z,995.19
2018-06-30T06:36:59.227Z,995.2
2018-06-30T06:38:09.599Z,995.16
2018-06-30T06:39:19.729Z,995.18
2018-06-30T06:40:30.105Z,995.18
2018-06-30T06:41:40.550Z,995.21
2018-06-30T06:42:51.168Z,995.19
2018-06-30T06:44:00.754Z,995.14
2018-06-30T06:45:10.858Z,995.17
2018-06-30T06:46:20.680Z,995.14
2018-06-30T06:47:30.768Z,995.13
2018-06-30T06:48:40.831Z,995.13
2018-06-30T06:49:50.700Z,995.1
2018-06-30T06:51:00.249Z,995.11
2018-06-30T06:52:10.340Z,995.09
2018-06-30T06:53:19.600Z,995.09
2018-06-30T06:54:29.401Z,995.08
2018-06-30T06:55:38.984Z,995.07
2018-06-30T06:56:48.517Z,995.08
2018-06-30T06:57:58.328Z,995.1
2018-06-30T06:59:08.461Z,995.07
2018-06-30T07:00:18.271Z,995.04
2018-06-30T07:01:28.128Z,995.04
2018-06-30T07:02:37.999Z,995.01
2018-06-30T07:03:47.803Z,995.01
2018-06-30T07:04:57.908Z,995
2018-06-30T07:06:07.698Z,994.99
2018-06-30T07:07:17.284Z,994.99
2018-06-30T07:08:27.083Z,994.99
2018-06-30T07:09:36.866Z,994.96
2018-06-30T07:10:46.134Z,994.95
2018-06-30T07:11:56.196Z,994.95
2018-06-30T07:13:06.054Z,994.94
2018-06-30T07:14:15.573Z,994.95
2018-06-30T07:15:25.109Z,994.99
2018-06-30T07:16:34.646Z,994.99
2018-06-30T07:17:44.436Z,994.98
2018-06-30T07:18:54.295Z,994.95
2018-06-30T07:20:04.359Z,994.96
2018-06-30T07:21:14.415Z,994.99
2018-06-30T07:22:24.268Z,994.95
2018-06-30T07:23:34.440Z,995.01
2018-06-30T07:24:44.281Z,994.98
2018-06-30T07:25:53.821Z,994.98
2018-06-30T07:27:03.340Z,994.97
2018-06-30T07:28:13.140Z,994.96
2018-06-30T07:29:22.657Z,994.97
2018-06-30T07:30:32.817Z,994.96
2018-06-30T07:31:42.700Z,994.93
2018-06-30T07:32:51.962Z,994.88
2018-06-30T07:34:02.076Z,994.91
2018-06-30T07:35:11.883Z,994.92
2018-06-30T07:36:21.985Z,994.94
2018-06-30T07:37:32.118Z,994.95
2018-06-30T07:38:42.035Z,994.92
2018-06-30T07:39:52.101Z,994.88
2018-06-30T07:41:02.174Z,994.89
2018-06-30T07:42:12.024Z,994.91
2018-06-30T07:43:22.088Z,994.86
2018-06-30T07:44:31.880Z,994.9
2018-06-30T07:45:41.685Z,994.89
2018-06-30T07:46:51.223Z,994.87
2018-06-30T07:48:00.810Z,994.86
2018-06-30T07:49:10.625Z,994.82
2018-06-30T07:50:20.705Z,994.86
2018-06-30T07:51:30.473Z,994.85
2018-06-30T07:52:40.713Z,994.81
2018-06-30T07:53:50.837Z,994.79
2018-06-30T07:55:00.619Z,994.81
2018-06-30T07:56:10.940Z,994.82
2018-06-30T07:57:20.501Z,994.8
2018-06-30T07:58:30.048Z,994.83
2018-06-30T07:59:40.342Z,994.82
2018-06-30T08:00:50.145Z,994.82
2018-06-30T08:02:00.351Z,994.79
2018-06-30T08:03:09.899Z,994.82
2018-06-30T08:04:19.697Z,994.8
2018-06-30T08:05:29.788Z,994.8
2018-06-30T08:06:39.599Z,994.78
2018-06-30T08:07:49.610Z,994.78
2018-06-30T08:08:59.155Z,994.8
2018-06-30T08:10:09.233Z,994.78
2018-06-30T08:11:19.389Z,994.79
2018-06-30T08:12:29.473Z,994.78
2018-06-30T08:13:39.541Z,994.77
2018-06-30T08:14:49.707Z,994.8
2018-06-30T08:15:59.509Z,994.77
2018-06-30T08:17:09.377Z,994.78
2018-06-30T08:18:19.459Z,994.77
2018-06-30T08:19:29.532Z,994.75
2018-06-30T08:20:39.307Z,994.8
2018-06-30T08:21:49.360Z,994.78
2018-06-30T08:22:58.930Z,994.77
2018-06-30T08:24:09.006Z,994.8
2018-06-30T08:25:18.812Z,994.81
2018-06-30T08:26:28.342Z,994.8
2018-06-30T08:27:38.401Z,994.77
2018-06-30T08:28:48.518Z,994.84
2018-06-30T08:29:58.337Z,994.81
2018-06-30T08:31:08.154Z,994.83
2018-06-30T08:32:18.238Z,994.83
2018-06-30T08:33:28.043Z,994.81
2018-06-30T08:34:37.900Z,994.8
2018-06-30T08:35:47.712Z,994.83
2018-06-30T08:36:57.783Z,994.79
2018-06-30T08:38:07.573Z,994.83
2018-06-30T08:39:17.654Z,994.83
2018-06-30T08:40:27.486Z,994.84
2018-06-30T08:41:37.620Z,994.82
2018-06-30T08:42:47.688Z,994.81
2018-06-30T08:43:57.232Z,994.8
2018-06-30T08:45:07.052Z,994.79
2018-06-30T08:46:16.904Z,994.81
2018-06-30T08:47:26.974Z,994.8
2018-06-30T08:48:36.783Z,994.76
2018-06-30T08:49:46.584Z,994.74
2018-06-30T08:50:56.650Z,994.74
2018-06-30T08:52:06.288Z,994.73
2018-06-30T08:53:15.812Z,994.71
2018-06-30T08:54:25.900Z,994.72
2018-06-30T08:55:35.712Z,994.69
2018-06-30T08:56:46.210Z,994.68
2018-06-30T08:57:56.083Z,994.66
2018-06-30T08:59:05.631Z,994.69
2018-06-30T09:00:15.687Z,994.67
2018-06-30T09:01:25.754Z,994.75
2018-06-30T09:02:35.552Z,994.73
2018-06-30T09:03:45.410Z,994.79
2018-06-30T09:04:55.200Z,994.81
2018-06-30T09:06:05.015Z,994.79
2018-06-30T09:07:14.630Z,994.76
2018-06-30T09:08:24.429Z,994.77
2018-06-30T09:09:34.274Z,994.73
2018-06-30T09:10:44.114Z,994.73
2018-06-30T09:11:54.410Z,994.75
2018-06-30T09:13:04.683Z,994.73
2018-06-30T09:14:14.799Z,994.76
2018-06-30T09:15:24.381Z,994.71
2018-06-30T09:16:34.173Z,994.71
2018-06-30T09:17:44.241Z,994.72
2018-06-30T09:18:54.310Z,994.72
2018-06-30T09:20:04.362Z,994.71
2018-06-30T09:21:14.620Z,994.69
2018-06-30T09:22:24.410Z,994.69
2018-06-30T09:23:34.201Z,994.72
2018-06-30T09:24:44.298Z,994.72
2018-06-30T09:25:53.558Z,994.75
2018-06-30T09:27:03.703Z,994.76
2018-06-30T09:28:13.789Z,994.74
2018-06-30T09:29:23.327Z,994.8
2018-06-30T09:30:33.409Z,994.74
2018-06-30T09:31:43.208Z,994.8
2018-06-30T09:32:53.337Z,994.79
2018-06-30T09:34:03.132Z,994.76
2018-06-30T09:35:13.220Z,994.75
2018-06-30T09:36:23.027Z,994.76
2018-06-30T09:37:33.103Z,994.7
2018-06-30T09:38:42.951Z,994.69
2018-06-30T09:39:52.211Z,994.73
2018-06-30T09:41:02.282Z,994.68
2018-06-30T09:42:12.349Z,994.64
2018-06-30T09:43:21.866Z,994.67
2018-06-30T09:44:31.352Z,994.66
2018-06-30T09:45:41.458Z,994.65
2018-06-30T09:46:51.550Z,994.59
2018-06-30T09:48:01.631Z,994.61
2018-06-30T09:49:11.175Z,994.6
2018-06-30T09:50:21.314Z,994.59
2018-06-30T09:51:31.123Z,994.58
2018-06-30T09:52:40.915Z,994.57
2018-06-30T09:53:50.162Z,994.57
2018-06-30T09:54:59.691Z,994.55
2018-06-30T09:56:09.549Z,994.54
2018-06-30T09:57:19.359Z,994.57
2018-06-30T09:58:29.474Z,994.6
2018-06-30T09:59:39.258Z,994.57
2018-06-30T10:00:49.313Z,994.56
2018-06-30T10:01:59.160Z,994.57
2018-06-30T10:03:08.977Z,994.54
2018-06-30T10:04:18.795Z,994.57
2018-06-30T10:05:28.866Z,994.56
2018-06-30T10:06:38.935Z,994.53
2018-06-30T10:07:48.885Z,994.53
2018-06-30T10:08:58.702Z,994.52
2018-06-30T10:10:08.977Z,994.53
2018-06-30T10:11:19.057Z,994.51
2018-06-30T10:12:28.886Z,994.47
2018-06-30T10:13:38.872Z,994.48
2018-06-30T10:14:48.120Z,994.46
2018-06-30T10:15:58.182Z,994.44
2018-06-30T10:17:07.728Z,994.5
2018-06-30T10:18:17.797Z,994.48
2018-06-30T10:19:27.940Z,994.42
2018-06-30T10:20:37.759Z,994.44
2018-06-30T10:21:47.914Z,994.43
2018-06-30T10:22:58.029Z,994.4
2018-06-30T10:24:08.096Z,994.37
2018-06-30T10:25:17.954Z,994.37
2018-06-30T10:26:28.020Z,994.36
2018-06-30T10:27:38.107Z,994.34
2018-06-30T10:28:48.177Z,994.3
2018-06-30T10:29:57.975Z,994.31
2018-06-30T10:31:08.099Z,994.29
2018-06-30T10:32:18.400Z,994.31
2018-06-30T10:33:28.189Z,994.27
2018-06-30T10:34:38.271Z,994.22
2018-06-30T10:35:48.346Z,994.22
2018-06-30T10:36:58.490Z,994.23
2018-06-30T10:38:08.022Z,994.19
2018-06-30T10:39:18.112Z,994.21
2018-06-30T10:40:27.390Z,994.21
2018-06-30T10:41:37.478Z,994.19
2018-06-30T10:42:47.324Z,994.19
2018-06-30T10:43:57.130Z,994.15
2018-06-30T10:45:06.675Z,994.12
2018-06-30T10:46:16.220Z,994.1
2018-06-30T10:47:26.300Z,994.1
2018-06-30T10:48:36.437Z,994.08
2018-06-30T10:49:46.492Z,994.12
2018-06-30T10:50:56.561Z,994.09
2018-06-30T10:52:06.641Z,994.11
2018-06-30T10:53:16.695Z,994.08
2018-06-30T10:54:26.822Z,994.14
2018-06-30T10:55:36.631Z,994.1
2018-06-30T10:56:46.696Z,994.12
2018-06-30T10:57:56.220Z,994.07
2018-06-30T10:59:05.741Z,994.11
2018-06-30T11:00:15.946Z,994.12
2018-06-30T11:01:26.382Z,994.1
2018-06-30T11:02:36.434Z,994.09
2018-06-30T11:03:46.242Z,994.11
2018-06-30T11:04:55.828Z,994.07
2018-06-30T11:06:06.038Z,994.07
2018-06-30T11:07:15.852Z,994.1
2018-06-30T11:08:25.654Z,994.07
2018-06-30T11:09:35.721Z,994.07
2018-06-30T11:10:45.256Z,994.07
2018-06-30T11:11:55.188Z,994.02
2018-06-30T11:13:05.269Z,994.04
2018-06-30T11:14:15.335Z,994.07
2018-06-30T11:15:25.409Z,994.04
2018-06-30T11:16:35.268Z,994
2018-06-30T11:17:45.404Z,994.01
2018-06-30T11:18:55.205Z,994.03
2018-06-30T11:20:04.542Z,993.99
2018-06-30T11:21:15.032Z,993.98
2018-06-30T11:22:24.569Z,993.96
2018-06-30T11:23:34.693Z,993.94
2018-06-30T11:24:44.758Z,993.94
2018-06-30T11:25:54.593Z,993.92
2018-06-30T11:27:04.409Z,993.91
2018-06-30T11:28:14.478Z,993.87
2018-06-30T11:29:24.614Z,993.83
2018-06-30T11:30:34.954Z,993.85
2018-06-30T11:31:45.019Z,993.84
2018-06-30T11:32:54.819Z,993.82
2018-06-30T11:34:04.885Z,993.84
2018-06-30T11:35:14.739Z,993.86
2018-06-30T11:36:24.518Z,993.88
2018-06-30T11:37:34.581Z,993.86
2018-06-30T11:38:44.657Z,993.85
2018-06-30T11:39:54.187Z,993.9
2018-06-30T11:41:04.037Z,993.89
2018-06-30T11:42:13.838Z,993.96
2018-06-30T11:43:23.900Z,994.02
2018-06-30T11:44:34.003Z,994.04
2018-06-30T11:45:43.807Z,994.08
2018-06-30T11:46:53.943Z,994.08
2018-06-30T11:48:03.754Z,993.98
2018-06-30T11:49:13.577Z,993.97
2018-06-30T11:50:23.675Z,993.96
2018-06-30T11:51:34.141Z,993.99
2018-06-30T11:52:44.003Z,993.89
2018-06-30T11:53:53.809Z,993.86
2018-06-30T11:55:03.353Z,993.89
2018-06-30T11:56:13.185Z,993.82
2018-06-30T11:57:23.266Z,993.81
2018-06-30T11:58:32.871Z,993.79
2018-06-30T11:59:42.966Z,993.78
2018-06-30T12:00:52.771Z,993.83
2018-06-30T12:02:02.367Z,993.81
2018-06-30T12:03:12.472Z,993.72
2018-06-30T12:04:22.375Z,993.72
2018-06-30T12:05:32.478Z,993.71
2018-06-30T12:06:42.579Z,993.71
2018-06-30T12:07:52.381Z,993.76
2018-06-30T12:09:01.675Z,993.75
2018-06-30T12:10:11.282Z,993.75
2018-06-30T12:11:21.385Z,993.77
2018-06-30T12:12:30.924Z,993.78
2018-06-30T12:13:40.714Z,993.77
2018-06-30T12:14:50.781Z,993.73
2018-06-30T12:16:00.639Z,993.73
2018-06-30T12:17:10.735Z,993.71
2018-06-30T12:18:20.279Z,993.69
2018-06-30T12:19:30.107Z,993.65
2018-06-30T12:20:39.913Z,993.7
2018-06-30T12:21:49.789Z,993.65
2018-06-30T12:22:59.962Z,993.68
2018-06-30T12:24:09.514Z,993.59
2018-06-30T12:25:19.598Z,993.61
2018-06-30T12:26:29.723Z,993.62
2018-06-30T12:27:39.341Z,993.66
2018-06-30T12:28:49.157Z,993.63
2018-06-30T12:29:59.246Z,993.58
2018-06-30T12:31:08.796Z,993.66
2018-06-30T12:32:18.967Z,993.64
2018-06-30T12:33:29.459Z,993.56
2018-06-30T12:34:39.277Z,993.56
2018-06-30T12:35:48.550Z,993.55
2018-06-30T12:36:58.659Z,993.53
2018-06-30T12:38:08.207Z,993.65
2018-06-30T12:39:17.283Z,993.59
2018-06-30T12:40:27.386Z,993.58
2018-06-30T12:41:37.489Z,993.45
2018-06-30T12:42:47.589Z,993.48
2018-06-30T12:43:57.413Z,993.5
2018-06-30T12:45:07.282Z,993.33
2018-06-30T12:46:17.377Z,993.44
2018-06-30T12:47:27.488Z,993.34
2018-06-30T12:48:37.597Z,993.42
2018-06-30T12:49:47.421Z,993.38
2018-06-30T12:50:57.016Z,993.29
2018-06-30T12:52:07.113Z,993.33
2018-06-30T12:53:17.221Z,993.3
2018-06-30T12:54:27.145Z,993.35
2018-06-30T12:55:38.880Z,993.28
2018-06-30T12:56:49.043Z,993.2
2018-06-30T12:57:59.190Z,993.33
2018-06-30T12:59:09.282Z,993.28
2018-06-30T13:00:19.375Z,993.28
2018-06-30T13:01:29.464Z,993.32
2018-06-30T13:02:39.061Z,993.29
2018-06-30T13:03:49.196Z,993.28
2018-06-30T13:04:59.604Z,993.28
2018-06-30T13:06:09.429Z,993.31
2018-06-30T13:07:19.531Z,993.26
2018-06-30T13:08:29.682Z,993.26
2018-06-30T13:09:39.526Z,993.32
2018-06-30T13:10:49.611Z,993.3
2018-06-30T13:11:59.704Z,993.3
2018-06-30T13:13:09.526Z,993.25
2018-06-30T13:14:19.117Z,993.37
2018-06-30T13:15:28.937Z,993.24
2018-06-30T13:16:38.748Z,993.34
2018-06-30T13:17:48.434Z,993.23
2018-06-30T13:18:57.859Z,993.34
2018-06-30T13:20:07.725Z,993.38
2018-06-30T13:21:17.804Z,993.39
2018-06-30T13:22:27.910Z,993.45
2018-06-30T13:23:37.751Z,993.39
2018-06-30T13:24:47.574Z,993.44
2018-06-30T13:25:57.173Z,993.42
2018-06-30T13:27:06.718Z,993.42
2018-06-30T13:28:16.806Z,993.4
2018-06-30T13:29:26.886Z,993.5
2018-06-30T13:30:36.981Z,993.55
2018-06-30T13:31:47.126Z,993.61
2018-06-30T13:32:56.950Z,993.59
2018-06-30T13:34:06.508Z,993.65
2018-06-30T13:35:16.335Z,993.74
2018-06-30T13:36:26.425Z,993.7
2018-06-30T13:37:36.035Z,993.74
2018-06-30T13:38:45.844Z,993.73
2018-06-30T13:39:55.664Z,993.73
2018-06-30T13:41:05.488Z,993.75
2018-06-30T13:42:15.051Z,993.77
2018-06-30T13:43:24.687Z,993.7
2018-06-30T13:44:35.009Z,993.88
2018-06-30T13:45:44.889Z,993.81
2018-06-30T13:46:54.719Z,993.88
2018-06-30T13:48:04.542Z,993.81
2018-06-30T13:49:14.146Z,993.82
2018-06-30T13:50:24.230Z,993.75
2018-06-30T13:51:33.512Z,993.79
2018-06-30T13:52:43.422Z,993.74
2018-06-30T13:53:53.706Z,993.8
2018-06-30T13:55:03.586Z,993.88
2018-06-30T13:56:13.408Z,993.83
2018-06-30T13:57:23.241Z,993.86
2018-06-30T13:58:32.804Z,993.87
2018-06-30T13:59:42.651Z,993.93
2018-06-30T14:00:52.281Z,993.9
2018-06-30T14:02:02.026Z,993.86
2018-06-30T14:03:12.111Z,993.77
2018-06-30T14:04:21.936Z,993.84
2018-06-30T14:05:31.497Z,993.76
2018-06-30T14:06:41.638Z,993.81
2018-06-30T14:07:51.454Z,993.69
2018-06-30T14:09:01.273Z,993.82
2018-06-30T14:10:11.110Z,993.8
2018-06-30T14:11:20.929Z,993.7
2018-06-30T14:12:31.071Z,993.72
2018-06-30T14:13:40.612Z,993.71
2018-06-30T14:14:50.716Z,993.62
2018-06-30T14:16:00.550Z,993.54
2018-06-30T14:17:10.422Z,993.53
2018-06-30T14:18:19.794Z,993.31
2018-06-30T14:19:29.291Z,993.27
2018-06-30T14:20:39.111Z,993.2
2018-06-30T14:21:48.923Z,993.26
2018-06-30T14:22:59.061Z,993.27
2018-06-30T14:24:08.929Z,993.34
2018-06-30T14:25:18.753Z,993.36
2018-06-30T14:26:28.851Z,993.35
2018-06-30T14:27:38.944Z,993.53
2018-06-30T14:28:48.764Z,993.48
2018-06-30T14:29:58.630Z,993.33
2018-06-30T14:31:08.475Z,993.22
2018-06-30T14:32:18.589Z,993.26
2018-06-30T14:33:28.698Z,993.61
2018-06-30T14:34:38.802Z,993.78
2018-06-30T14:35:48.682Z,993.67
2018-06-30T14:36:58.767Z,993.91